createdAt,value
2017-05-10T00:00:36.213Z,6.88
2017-05-10T00:03:04.459Z,7.98
2017-05-10T00:05:32.694Z,5.80
2017-05-10T00:08:01.672Z,6.32
2017-05-10T00:10:29.897Z,4.80
2017-05-10T00:12:58.138Z,6.63
2017-05-10T00:15:27.112Z,9.93
2017-05-10T00:17:55.356Z,7.07
2017-05-10T00:20:23.581Z,9.22
2017-05-10T00:22:52.561Z,5.62
2017-05-10T00:25:20.811Z,9.07
2017-05-10T00:27:49.034Z,7.64
2017-05-10T00:30:17.272Z,7.27
2017-05-10T00:32:45.513Z,6.82
2017-05-10T00:35:13.732Z,8.63
2017-05-10T00:37:42.712Z,6.84
2017-05-10T00:40:10.956Z,5.47
2017-05-10T00:42:39.208Z,9.00
2017-05-10T00:45:07.434Z,7.54
2017-05-10T00:47:35.658Z,5.87
2017-05-10T00:50:03.906Z,7.92
2017-05-10T00:52:33.409Z,7.43
2017-05-10T00:55:02.408Z,7.37
2017-05-10T00:57:31.385Z,5.58
2017-05-10T01:00:00.346Z,4.88
2017-05-10T01:02:28.597Z,5.33
2017-05-10T01:05:04.163Z,5.35
2017-05-10T01:07:33.300Z,7.25
2017-05-10T01:10:02.272Z,5.58
2017-05-10T01:12:30.508Z,7.53
2017-05-10T01:14:58.752Z,5.10
2017-05-10T01:17:26.971Z,8.16
2017-05-10T01:19:55.226Z,7.20
2017-05-10T01:22:23.481Z,4.73
2017-05-10T01:24:51.708Z,6.63
2017-05-10T01:27:19.957Z,5.60
2017-05-10T01:29:48.192Z,6.57
2017-05-10T01:32:17.233Z,6.30
2017-05-10T01:34:45.448Z,9.60
2017-05-10T01:37:14.420Z,9.88
2017-05-10T01:39:42.660Z,10.36
2017-05-10T01:42:10.892Z,7.23
2017-05-10T01:44:39.193Z,10.55
2017-05-10T01:47:09.737Z,7.90
2017-05-10T01:49:38.134Z,6.97
2017-05-10T01:52:06.367Z,9.68
2017-05-10T01:54:34.615Z,8.87
2017-05-10T01:57:03.623Z,9.08
2017-05-10T01:59:32.620Z,8.75
2017-05-10T02:02:00.847Z,10.15
2017-05-10T02:04:29.112Z,9.33
2017-05-10T02:06:57.345Z,8.37
2017-05-10T02:09:25.596Z,10.33
2017-05-10T02:11:53.820Z,10.45
2017-05-10T02:14:22.040Z,10.57
2017-05-10T02:16:50.288Z,13.55
2017-05-10T02:19:18.530Z,14.13
2017-05-10T02:21:46.846Z,7.68
2017-05-10T02:24:15.130Z,11.30
2017-05-10T02:26:43.414Z,10.27
2017-05-10T02:29:11.796Z,10.28
2017-05-10T02:31:40.094Z,9.82
2017-05-10T02:34:09.099Z,9.18
2017-05-10T02:36:37.362Z,10.42
2017-05-10T02:39:06.369Z,11.23
2017-05-10T02:41:34.644Z,11.08
2017-05-10T02:44:02.905Z,11.58
2017-05-10T02:46:31.962Z,11.62
2017-05-10T02:49:00.225Z,9.62
2017-05-10T02:51:28.452Z,8.74
2017-05-10T02:53:57.005Z,8.73
2017-05-10T02:56:25.229Z,12.33
2017-05-10T02:58:53.508Z,9.17
2017-05-10T03:01:21.724Z,8.20
2017-05-10T03:03:49.950Z,7.75
2017-05-10T03:06:18.245Z,7.72
2017-05-10T03:08:46.496Z,8.82
2017-05-10T03:11:16.074Z,7.13
2017-05-10T03:13:46.665Z,8.42
2017-05-10T03:16:14.887Z,10.08
2017-05-10T03:18:43.876Z,8.54
2017-05-10T03:21:12.858Z,5.83
2017-05-10T03:23:41.855Z,8.45
2017-05-10T03:26:10.109Z,7.30
2017-05-10T03:28:38.335Z,7.93
2017-05-10T03:31:06.567Z,7.43
2017-05-10T03:33:34.800Z,8.15
2017-05-10T03:36:03.073Z,7.18
2017-05-10T03:38:31.302Z,5.78
2017-05-10T03:41:00.276Z,9.02
2017-05-10T03:43:28.506Z,8.88
2017-05-10T03:45:56.725Z,7.03
2017-05-10T03:48:24.958Z,7.37
2017-05-10T03:50:53.195Z,8.18
2017-05-10T03:53:22.180Z,8.26
2017-05-10T03:55:51.156Z,6.72
2017-05-10T03:58:19.384Z,10.38
2017-05-10T04:00:47.650Z,7.20
2017-05-10T04:03:15.889Z,6.40
2017-05-10T04:05:44.134Z,5.70
2017-05-10T04:08:12.352Z,6.82
2017-05-10T04:10:41.351Z,6.72
2017-05-10T04:13:10.336Z,7.80
2017-05-10T04:15:39.307Z,5.62
2017-05-10T04:18:07.558Z,8.22
2017-05-10T04:20:35.779Z,6.55
2017-05-10T04:23:04.045Z,9.70
2017-05-10T04:25:33.011Z,8.40
2017-05-10T04:28:01.283Z,8.07
2017-05-10T04:30:29.517Z,7.10
2017-05-10T04:32:57.751Z,8.20
2017-05-10T04:35:26.048Z,5.68
2017-05-10T04:37:55.014Z,9.27
2017-05-10T04:40:23.258Z,7.40
2017-05-10T04:42:51.481Z,9.50
2017-05-10T04:45:20.444Z,7.57
2017-05-10T04:47:48.687Z,6.30
2017-05-10T04:50:16.927Z,8.50
2017-05-10T04:52:45.275Z,6.73
2017-05-10T04:55:13.503Z,8.47
2017-05-10T04:57:41.776Z,8.40
2017-05-10T05:00:10.001Z,8.40
2017-05-10T05:02:38.257Z,9.00
2017-05-10T05:05:06.484Z,6.85
2017-05-10T05:07:34.722Z,5.68
2017-05-10T05:10:02.993Z,8.40
2017-05-10T05:12:31.226Z,9.63
2017-05-10T05:14:59.489Z,7.13
2017-05-10T05:17:27.798Z,7.20
2017-05-10T05:19:56.028Z,6.45
2017-05-10T05:22:25.031Z,8.07
2017-05-10T05:24:53.264Z,7.92
2017-05-10T05:27:21.505Z,7.63
2017-05-10T05:29:49.725Z,8.87
2017-05-10T05:32:17.969Z,5.80
2017-05-10T05:34:46.217Z,8.93
2017-05-10T05:37:14.448Z,9.58
2017-05-10T05:39:42.689Z,8.45
2017-05-10T05:42:10.919Z,11.85
2017-05-10T05:44:39.238Z,8.17
2017-05-10T05:47:07.481Z,10.92
2017-05-10T05:49:35.747Z,9.38
2017-05-10T05:52:03.976Z,12.07
2017-05-10T05:54:32.215Z,9.38
2017-05-10T05:57:00.518Z,9.90
2017-05-10T05:59:28.747Z,9.06
2017-05-10T06:01:57.009Z,9.30
2017-05-10T06:04:26.142Z,8.13
2017-05-10T06:06:54.439Z,7.58
2017-05-10T06:09:22.669Z,7.78
2017-05-10T06:11:50.945Z,9.15
2017-05-10T06:14:19.563Z,10.57
2017-05-10T06:16:47.838Z,8.52
2017-05-10T06:19:16.092Z,9.38
2017-05-10T06:21:44.337Z,9.05
2017-05-10T06:24:12.602Z,8.07
2017-05-10T06:26:40.844Z,6.48
2017-05-10T06:29:09.078Z,8.95
2017-05-10T06:31:37.331Z,7.45
2017-05-10T06:34:06.300Z,10.07
2017-05-10T06:36:34.565Z,9.70
2017-05-10T06:39:02.812Z,8.15
2017-05-10T06:41:31.099Z,6.96
2017-05-10T06:43:59.379Z,7.27
2017-05-10T06:46:27.617Z,9.00
2017-05-10T06:48:55.877Z,8.60
2017-05-10T06:51:24.096Z,8.64
2017-05-10T06:53:52.335Z,8.98
2017-05-10T06:56:20.610Z,8.60
2017-05-10T06:58:48.890Z,9.30
2017-05-10T07:01:17.138Z,11.17
2017-05-10T07:03:45.382Z,10.10
2017-05-10T07:06:13.634Z,9.68
2017-05-10T07:08:41.900Z,7.80
2017-05-10T07:11:10.132Z,10.28
2017-05-10T07:13:38.386Z,6.60
2017-05-10T07:16:06.613Z,8.40
2017-05-10T07:18:35.600Z,8.38
2017-05-10T07:21:03.839Z,8.40
2017-05-10T07:23:32.198Z,10.40
2017-05-10T07:26:00.423Z,9.50
2017-05-10T07:28:29.399Z,8.08
2017-05-10T07:30:58.386Z,7.60
2017-05-10T07:33:26.630Z,6.32
2017-05-10T07:35:54.875Z,6.18
2017-05-10T07:38:23.125Z,5.80
2017-05-10T07:40:52.128Z,5.93
2017-05-10T07:43:20.360Z,4.96
2017-05-10T07:45:48.588Z,3.90
2017-05-10T07:48:16.838Z,4.18
2017-05-10T07:50:45.074Z,5.16
2017-05-10T07:53:13.314Z,5.57
2017-05-10T07:55:41.618Z,6.00
2017-05-10T07:58:09.925Z,5.07
2017-05-10T08:00:38.947Z,5.90
2017-05-10T08:03:07.177Z,6.67
2017-05-10T08:05:35.416Z,7.52
2017-05-10T08:08:03.679Z,4.62
2017-05-10T08:10:31.925Z,4.38
2017-05-10T08:13:00.908Z,5.00
2017-05-10T08:15:29.184Z,4.03
2017-05-10T08:17:57.416Z,4.70
2017-05-10T08:20:25.646Z,4.45
2017-05-10T08:22:54.625Z,4.65
2017-05-10T08:25:22.856Z,3.75
2017-05-10T08:27:51.146Z,5.05
2017-05-10T08:30:19.368Z,3.70
2017-05-10T08:32:48.353Z,4.02
2017-05-10T08:35:17.321Z,3.53
2017-05-10T08:37:45.599Z,3.25
2017-05-10T08:40:13.831Z,4.02
2017-05-10T08:42:42.054Z,3.00
2017-05-10T08:45:10.288Z,2.82
2017-05-10T08:47:38.538Z,3.12
2017-05-10T08:50:06.778Z,3.70
2017-05-10T08:52:34.997Z,3.42
2017-05-10T08:55:03.268Z,2.85
2017-05-10T08:57:31.501Z,3.10
2017-05-10T08:59:59.726Z,2.50
2017-05-10T09:02:28.020Z,2.88
2017-05-10T09:04:56.261Z,4.07
2017-05-10T09:07:24.519Z,4.58
2017-05-10T09:09:53.492Z,1.90
2017-05-10T09:12:21.737Z,2.45
2017-05-10T09:14:50.049Z,3.28
2017-05-10T09:17:19.035Z,2.60
2017-05-10T09:19:47.313Z,2.38
2017-05-10T09:22:15.546Z,3.38
2017-05-10T09:24:43.829Z,2.40
2017-05-10T09:27:12.078Z,2.47
2017-05-10T09:29:40.310Z,2.88
2017-05-10T09:32:08.569Z,3.45
2017-05-10T09:34:36.812Z,2.97
2017-05-10T09:37:05.077Z,2.65
2017-05-10T09:39:33.348Z,2.22
2017-05-10T09:42:01.623Z,4.15
2017-05-10T09:44:29.978Z,3.70
2017-05-10T09:46:58.963Z,2.73
2017-05-10T09:49:27.211Z,1.85
2017-05-10T09:51:55.471Z,2.60
2017-05-10T09:54:23.705Z,2.23
2017-05-10T09:56:52.673Z,2.30
2017-05-10T09:59:21.795Z,2.22
2017-05-10T10:01:50.031Z,2.35
2017-05-10T10:04:18.282Z,2.50
2017-05-10T10:06:46.661Z,2.10
2017-05-10T10:09:14.899Z,3.17
2017-05-10T10:11:43.211Z,2.07
2017-05-10T10:14:11.433Z,4.03
2017-05-10T10:16:39.696Z,2.08
2017-05-10T10:19:08.684Z,1.30
2017-05-10T10:21:36.984Z,1.37
2017-05-10T10:24:06.022Z,1.80
2017-05-10T10:26:34.265Z,1.70
2017-05-10T10:29:02.496Z,1.60
2017-05-10T10:31:30.740Z,2.75
2017-05-10T10:33:59.028Z,2.70
2017-05-10T10:36:27.286Z,2.50
2017-05-10T10:38:55.516Z,2.80
2017-05-10T10:41:24.478Z,3.42
2017-05-10T10:43:52.738Z,3.10
2017-05-10T10:46:20.964Z,3.17
2017-05-10T10:51:40.633Z,2.87
2017-05-10T10:54:08.875Z,2.78
2017-05-10T10:56:37.196Z,3.00
2017-05-10T10:59:06.181Z,2.87
2017-05-10T11:01:34.413Z,2.70
2017-05-10T11:04:02.681Z,3.37
2017-05-10T11:06:30.904Z,3.10
2017-05-10T11:08:59.156Z,2.80
2017-05-10T11:11:27.389Z,3.05
2017-05-10T11:13:55.636Z,3.24
2017-05-10T11:16:24.622Z,3.20
2017-05-10T11:18:52.848Z,3.58
2017-05-10T11:21:21.103Z,3.72
2017-05-10T11:23:49.336Z,3.40
2017-05-10T11:26:17.588Z,3.52
2017-05-10T11:28:45.816Z,2.82
2017-05-10T11:31:14.816Z,2.45
2017-05-10T11:33:43.044Z,2.50
2017-05-10T11:36:11.367Z,1.50
2017-05-10T11:38:39.616Z,0.98
2017-05-10T11:41:08.588Z,0.93
2017-05-10T11:43:36.825Z,1.10
2017-05-10T11:46:05.069Z,1.53
2017-05-10T11:48:33.354Z,2.48
2017-05-10T11:51:01.600Z,1.86
2017-05-10T11:53:29.839Z,2.25
2017-05-10T11:55:58.118Z,2.13
2017-05-10T11:58:26.399Z,2.00
2017-05-10T12:00:54.698Z,2.00
2017-05-10T12:03:22.924Z,2.00
2017-05-10T12:05:51.185Z,2.30
2017-05-10T12:08:19.427Z,2.45
2017-05-10T12:10:47.689Z,1.93
2017-05-10T12:13:15.948Z,2.33
2017-05-10T12:15:44.726Z,1.65
2017-05-10T12:18:12.962Z,2.73
2017-05-10T12:20:41.950Z,2.70
2017-05-10T12:23:10.993Z,2.07
2017-05-10T12:25:39.227Z,2.95
2017-05-10T12:28:07.494Z,1.80
2017-05-10T12:30:36.542Z,2.72
2017-05-10T12:33:04.781Z,2.24
2017-05-10T12:35:33.032Z,1.87
2017-05-10T12:38:01.268Z,3.12
2017-05-10T12:40:29.509Z,1.98
2017-05-10T12:42:57.756Z,1.67
2017-05-10T12:45:26.754Z,1.70
2017-05-10T12:47:55.001Z,2.20
2017-05-10T12:50:23.233Z,2.30
2017-05-10T12:52:51.512Z,1.70
2017-05-10T12:55:19.783Z,2.00
2017-05-10T12:57:48.360Z,2.40
2017-05-10T13:00:16.651Z,2.78
2017-05-10T13:02:44.912Z,2.03
2017-05-10T13:05:13.138Z,1.60
2017-05-10T13:07:41.596Z,2.10
2017-05-10T13:10:10.612Z,1.40
2017-05-10T13:12:39.589Z,1.55
2017-05-10T13:15:07.856Z,1.57
2017-05-10T13:17:36.109Z,1.32
2017-05-10T13:20:04.394Z,1.50
2017-05-10T13:22:32.659Z,3.03
2017-05-10T13:25:00.890Z,2.43
2017-05-10T13:27:29.867Z,2.47
2017-05-10T13:29:58.120Z,1.93
2017-05-10T13:32:26.399Z,2.28
2017-05-10T13:34:54.672Z,2.20
2017-05-10T13:37:23.037Z,2.10
2017-05-10T13:39:51.317Z,2.80
2017-05-10T13:42:19.553Z,5.52
2017-05-10T13:44:47.862Z,3.87
2017-05-10T13:47:16.098Z,3.70
2017-05-10T13:49:44.324Z,6.40
2017-05-10T13:52:12.608Z,4.12
2017-05-10T13:54:41.880Z,5.50
2017-05-10T13:57:10.158Z,3.82
2017-05-10T13:59:38.422Z,3.33
2017-05-10T14:02:07.131Z,3.72
2017-05-10T14:04:35.377Z,4.00
2017-05-10T14:07:03.626Z,3.93
2017-05-10T14:09:32.608Z,3.90
2017-05-10T14:12:01.074Z,3.10
2017-05-10T14:14:29.389Z,3.55
2017-05-10T14:16:57.614Z,3.00
2017-05-10T14:19:25.972Z,2.78
2017-05-10T14:21:54.244Z,3.70
2017-05-10T14:24:22.523Z,3.20
2017-05-10T14:26:50.738Z,2.60
2017-05-10T14:29:19.747Z,2.48
2017-05-10T14:31:48.272Z,2.83
2017-05-10T14:34:16.522Z,2.82
2017-05-10T14:36:44.799Z,3.22
2017-05-10T14:39:13.017Z,3.12
2017-05-10T14:41:41.250Z,2.60
2017-05-10T14:44:09.536Z,2.33
2017-05-10T14:46:37.791Z,3.50
2017-05-10T14:49:06.042Z,2.77
2017-05-10T14:51:35.045Z,2.50
2017-05-10T14:54:03.328Z,3.02
2017-05-10T14:56:31.582Z,2.85
2017-05-10T14:58:59.846Z,3.40
2017-05-10T15:01:28.840Z,2.97
2017-05-10T15:03:57.072Z,2.64
2017-05-10T15:06:25.336Z,3.62
2017-05-10T15:08:53.580Z,3.00
2017-05-10T15:11:22.638Z,3.60
2017-05-10T15:13:50.928Z,3.23
2017-05-10T15:16:19.173Z,3.30
2017-05-10T15:18:47.450Z,3.23
2017-05-10T15:21:15.699Z,3.27
2017-05-10T15:23:43.952Z,3.58
2017-05-10T15:26:12.931Z,3.03
2017-05-10T15:28:41.912Z,2.70
2017-05-10T15:31:10.179Z,2.83
2017-05-10T15:33:38.412Z,3.20
2017-05-10T15:36:06.733Z,3.17
2017-05-10T15:38:34.968Z,3.22
2017-05-10T15:41:03.195Z,3.08
2017-05-10T15:43:31.455Z,4.77
2017-05-10T15:45:59.729Z,3.23
2017-05-10T15:48:27.991Z,4.45
2017-05-10T15:50:56.240Z,3.20
2017-05-10T15:53:24.496Z,4.08
2017-05-10T15:55:52.732Z,3.87
2017-05-10T15:58:21.091Z,3.27
2017-05-10T16:00:49.341Z,3.60
2017-05-10T16:03:17.641Z,3.00
2017-05-10T16:05:45.915Z,3.75
2017-05-10T16:08:14.161Z,3.05
2017-05-10T16:10:42.509Z,3.07
2017-05-10T16:13:11.491Z,3.40
2017-05-10T16:15:39.767Z,3.16
2017-05-10T16:18:08.724Z,3.58
2017-05-10T16:20:37.341Z,3.22
2017-05-10T16:23:06.029Z,3.37
2017-05-10T16:25:35.253Z,4.38
2017-05-10T16:28:03.672Z,4.48
2017-05-10T16:30:31.932Z,3.25
2017-05-10T16:33:00.216Z,4.85
2017-05-10T16:35:28.471Z,4.17
2017-05-10T16:37:57.044Z,3.83
2017-05-10T16:40:25.340Z,5.17
2017-05-10T16:42:53.588Z,5.80
2017-05-10T16:45:21.830Z,5.83
2017-05-10T16:47:50.114Z,4.00
2017-05-10T16:50:18.426Z,5.40
2017-05-10T16:52:46.672Z,4.80
2017-05-10T16:55:14.914Z,5.50
2017-05-10T16:57:43.276Z,5.68
2017-05-10T17:00:11.520Z,4.12
2017-05-10T17:02:39.765Z,5.72
2017-05-10T17:05:08.735Z,5.13
2017-05-10T17:07:37.608Z,5.48
2017-05-10T17:10:05.955Z,5.24
2017-05-10T17:12:35.059Z,6.37
2017-05-10T17:15:03.385Z,7.20
2017-05-10T17:17:32.586Z,6.22
2017-05-10T17:20:01.130Z,7.45
2017-05-10T17:22:29.746Z,4.93
2017-05-10T17:24:58.360Z,5.55
2017-05-10T17:27:26.941Z,8.07
2017-05-10T17:29:55.522Z,6.75
2017-05-10T17:32:24.078Z,4.97
2017-05-10T17:34:53.172Z,5.17
2017-05-10T17:37:21.822Z,7.93
2017-05-10T17:39:51.111Z,6.20
2017-05-10T17:42:19.805Z,6.15
2017-05-10T17:44:49.157Z,6.52
2017-05-10T17:47:17.760Z,6.12
2017-05-10T17:49:46.367Z,5.03
2017-05-10T17:52:15.712Z,6.85
2017-05-10T17:54:44.274Z,6.85
2017-05-10T17:57:12.874Z,4.93
2017-05-10T17:59:41.700Z,6.72
2017-05-10T18:02:10.438Z,6.65
2017-05-10T18:04:39.937Z,5.40
2017-05-10T18:07:08.602Z,7.60
2017-05-10T18:09:38.004Z,5.00
2017-05-10T18:12:07.302Z,7.10
2017-05-10T18:14:36.706Z,9.04
2017-05-10T18:17:05.981Z,6.63
2017-05-10T18:19:34.525Z,5.25
2017-05-10T18:22:03.134Z,8.47
2017-05-10T18:24:31.753Z,7.02
2017-05-10T18:27:00.438Z,6.90
2017-05-10T18:29:30.281Z,4.67
2017-05-10T18:31:58.939Z,7.36
2017-05-10T18:34:27.639Z,5.60
2017-05-10T18:36:56.233Z,7.45
2017-05-10T18:39:24.879Z,7.30
2017-05-10T18:41:54.370Z,6.20
2017-05-10T18:44:23.026Z,6.07
2017-05-10T18:46:51.680Z,8.73
2017-05-10T18:49:20.321Z,5.68
2017-05-10T18:51:49.049Z,5.42
2017-05-10T18:54:17.698Z,7.45
2017-05-10T18:56:46.281Z,9.13
2017-05-10T18:59:15.610Z,8.52
2017-05-10T19:01:44.905Z,7.57
2017-05-10T19:04:13.484Z,7.97
2017-05-10T19:06:42.096Z,8.58
2017-05-10T19:09:10.731Z,5.97
2017-05-10T19:11:39.362Z,6.97
2017-05-10T19:14:07.673Z,8.08
2017-05-10T19:16:35.970Z,7.68
2017-05-10T19:19:04.206Z,7.07
2017-05-10T19:21:32.567Z,6.20
2017-05-10T19:24:00.817Z,7.42
2017-05-10T19:26:29.116Z,10.78
2017-05-10T19:28:57.365Z,8.72
2017-05-10T19:31:25.621Z,7.47
2017-05-10T19:33:53.908Z,11.50
2017-05-10T19:36:22.209Z,8.22
2017-05-10T19:38:50.472Z,10.75
2017-05-10T19:41:18.723Z,8.42
2017-05-10T19:43:46.999Z,10.14
2017-05-10T19:46:15.321Z,11.47
2017-05-10T19:48:43.663Z,10.37
2017-05-10T19:51:11.953Z,11.25
2017-05-10T19:53:40.188Z,8.88
2017-05-10T19:56:08.428Z,11.52
2017-05-10T19:58:37.459Z,11.30
2017-05-10T20:01:05.861Z,8.50
2017-05-10T20:03:34.173Z,8.67
2017-05-10T20:06:02.433Z,11.03
2017-05-10T20:08:30.685Z,8.13
2017-05-10T20:10:58.938Z,11.47
2017-05-10T20:13:27.166Z,9.75
2017-05-10T20:15:55.431Z,11.28
2017-05-10T20:18:23.668Z,9.40
2017-05-10T20:20:51.928Z,11.37
2017-05-10T20:23:20.158Z,9.12
2017-05-10T20:25:48.387Z,10.88
2017-05-10T20:28:16.688Z,10.38
2017-05-10T20:30:44.949Z,9.82
2017-05-10T20:33:13.229Z,12.02
2017-05-10T20:35:41.480Z,11.82
2017-05-10T20:38:09.754Z,10.90
2017-05-10T20:40:38.001Z,9.55
2017-05-10T20:43:06.962Z,11.58
2017-05-10T20:45:35.200Z,13.68
2017-05-10T20:48:03.432Z,11.55
2017-05-10T20:50:31.677Z,11.40
2017-05-10T20:52:59.925Z,14.23
2017-05-10T20:55:28.189Z,15.33
2017-05-10T20:57:56.429Z,10.45
2017-05-10T21:00:24.719Z,10.72
2017-05-10T21:02:53.696Z,19.58
2017-05-10T21:05:21.933Z,12.22
2017-05-10T21:07:50.182Z,14.18
2017-05-10T21:10:18.438Z,13.92
2017-05-10T21:12:47.426Z,12.42
2017-05-10T21:15:16.404Z,14.55
2017-05-10T21:17:44.652Z,12.42
2017-05-10T21:20:12.893Z,15.73
2017-05-10T21:22:41.131Z,15.07
2017-05-10T21:25:09.448Z,12.38
2017-05-10T21:27:37.698Z,13.62
2017-05-10T21:30:06.676Z,13.70
2017-05-10T21:32:52.225Z,15.00
2017-05-10T21:35:20.556Z,14.05
2017-05-10T21:37:48.818Z,15.38
2017-05-10T21:40:17.127Z,13.93
2017-05-10T21:42:45.936Z,15.17
2017-05-10T21:45:14.176Z,17.48
2017-05-10T21:47:42.418Z,13.82
2017-05-10T21:50:10.683Z,18.42
2017-05-10T21:52:39.839Z,13.92
2017-05-10T21:55:08.081Z,13.80
2017-05-10T21:57:36.342Z,18.85
2017-05-10T22:00:04.585Z,17.53
2017-05-10T22:02:32.861Z,14.90
2017-05-10T22:05:01.123Z,18.98
2017-05-10T22:07:29.393Z,15.78
2017-05-10T22:09:57.651Z,17.87
2017-05-10T22:12:25.919Z,14.42
2017-05-10T22:14:54.159Z,16.18
2017-05-10T22:17:23.143Z,17.65
2017-05-10T22:19:51.388Z,13.72
2017-05-10T22:22:19.650Z,16.87
2017-05-10T22:24:47.881Z,19.85
2017-05-10T22:27:16.870Z,16.12
2017-05-10T22:29:45.846Z,17.83
2017-05-10T22:32:14.098Z,13.78
2017-05-10T22:34:42.349Z,17.87
2017-05-10T22:37:10.614Z,16.60
2017-05-10T22:39:38.861Z,19.15
2017-05-10T22:42:07.892Z,16.43
2017-05-10T22:44:36.143Z,17.96
2017-05-10T22:47:04.390Z,17.60
2017-05-10T22:49:32.647Z,15.62
2017-05-10T22:52:00.892Z,17.50
2017-05-10T22:54:29.180Z,18.18
2017-05-10T22:56:57.457Z,16.00
2017-05-10T22:59:25.685Z,16.75
2017-05-10T23:01:54.660Z,16.03
2017-05-10T23:04:23.639Z,15.55
2017-05-10T23:06:51.994Z,15.18
2017-05-10T23:09:20.255Z,13.92
2017-05-10T23:11:48.490Z,14.56
2017-05-10T23:14:17.489Z,16.53
2017-05-10T23:16:45.742Z,16.42
2017-05-10T23:19:13.983Z,20.75
2017-05-10T23:21:42.273Z,19.88
2017-05-10T23:24:10.511Z,18.00
2017-05-10T23:26:38.736Z,17.50
2017-05-10T23:29:06.990Z,17.70
2017-05-10T23:31:35.225Z,15.80
2017-05-10T23:34:03.484Z,14.62
2017-05-10T23:36:32.455Z,14.40
2017-05-10T23:39:00.708Z,13.88
2017-05-10T23:41:28.944Z,18.38
2017-05-10T23:43:57.181Z,17.75
2017-05-10T23:46:25.455Z,15.98
2017-05-10T23:48:53.695Z,17.77
2017-05-10T23:51:21.946Z,15.27
2017-05-10T23:53:50.167Z,17.08
2017-05-10T23:56:18.480Z,18.52
2017-05-10T23:58:46.738Z,17.25
